createdAt,value
2019-03-09T00:00:21.247Z,13.80
2019-03-09T00:03:04.739Z,13.80
2019-03-09T00:05:51.670Z,13.70
2019-03-09T00:08:33.473Z,13.50
2019-03-09T00:11:13.204Z,13.50
2019-03-09T00:13:58.289Z,13.50
2019-03-09T00:16:47.735Z,13.90
2019-03-09T00:19:28.928Z,13.90
2019-03-09T00:22:09.313Z,13.90
2019-03-09T00:25:18.987Z,13.80
2019-03-09T00:28:15.063Z,13.90
2019-03-09T00:31:16.382Z,14.00
2019-03-09T00:33:58.949Z,14.10
2019-03-09T00:36:39.817Z,14.50
2019-03-09T00:39:31.173Z,14.30
2019-03-09T00:42:15.072Z,14.30
2019-03-09T00:45:03.345Z,14.20
2019-03-09T00:48:00.744Z,14.10
2019-03-09T00:50:43.229Z,14.10
2019-03-09T00:53:33.688Z,14.10
2019-03-09T00:56:18.878Z,14.10
2019-03-09T00:59:04.418Z,14.40
2019-03-09T01:01:45.793Z,14.10
2019-03-09T01:04:34.987Z,14.20
2019-03-09T01:07:18.040Z,14.00
2019-03-09T01:10:05.935Z,14.20
2019-03-09T01:12:53.392Z,14.30
2019-03-09T01:15:35.350Z,14.30
2019-03-09T01:18:16.547Z,14.30
2019-03-09T01:20:57.269Z,14.20
2019-03-09T01:23:48.709Z,14.40
2019-03-09T01:26:36.300Z,14.40
2019-03-09T01:29:20.753Z,14.40
2019-03-09T01:32:05.458Z,14.40
2019-03-09T01:34:48.438Z,14.30
2019-03-09T01:37:32.903Z,14.40
2019-03-09T01:40:14.916Z,14.40
2019-03-09T01:42:58.953Z,14.40
2019-03-09T01:45:39.221Z,14.50
2019-03-09T01:48:20.549Z,14.50
2019-03-09T01:51:00.955Z,14.50
2019-03-09T01:53:51.747Z,14.50
2019-03-09T01:56:34.476Z,14.40
2019-03-09T01:59:16.619Z,14.40
2019-03-09T02:02:13.940Z,14.50
2019-03-09T02:05:05.791Z,14.60
2019-03-09T02:07:51.706Z,15.10
2019-03-09T02:10:33.495Z,15.20
2019-03-09T02:13:21.221Z,15.20
2019-03-09T02:16:08.456Z,15.20
2019-03-09T02:18:53.309Z,15.10
2019-03-09T02:21:41.575Z,14.90
2019-03-09T02:24:29.222Z,15.00
2019-03-09T02:27:16.883Z,15.00
2019-03-09T02:30:03.994Z,14.90
2019-03-09T02:32:46.490Z,15.10
2019-03-09T02:35:40.376Z,15.30
2019-03-09T02:38:49.172Z,15.30
2019-03-09T02:41:39.509Z,15.30
2019-03-09T02:44:24.363Z,15.20
2019-03-09T02:47:08.444Z,15.10
2019-03-09T02:49:53.151Z,15.10
2019-03-09T02:52:42.025Z,15.00
2019-03-09T02:55:21.475Z,14.90
2019-03-09T02:58:05.283Z,14.90
2019-03-09T03:00:59.703Z,14.90
2019-03-09T03:03:40.325Z,14.90
2019-03-09T03:06:24.651Z,15.30
2019-03-09T03:09:13.124Z,15.70
2019-03-09T03:15:03.707Z,15.80
2019-03-09T03:17:55.707Z,15.60
2019-03-09T03:20:43.610Z,15.60
2019-03-09T03:23:31.115Z,15.70
2019-03-09T03:26:17.871Z,15.80
2019-03-09T03:29:04.839Z,15.90
2019-03-09T03:31:47.734Z,15.90
2019-03-09T03:34:57.105Z,15.90
2019-03-09T03:37:43.985Z,16.00
2019-03-09T03:40:25.948Z,16.10
2019-03-09T03:43:16.812Z,16.20
2019-03-09T03:45:56.746Z,16.10
2019-03-09T03:48:41.825Z,16.10
2019-03-09T03:51:23.385Z,16.00
2019-03-09T03:54:06.648Z,15.90
2019-03-09T03:56:51.107Z,15.90
2019-03-09T03:59:36.023Z,15.90
2019-03-09T04:02:20.349Z,15.90
2019-03-09T04:05:04.160Z,15.80
2019-03-09T04:07:50.141Z,15.80
2019-03-09T04:10:42.638Z,15.80
2019-03-09T04:13:35.679Z,15.80
2019-03-09T04:16:24.656Z,15.70
2019-03-09T04:19:17.844Z,15.60
2019-03-09T04:22:02.781Z,15.60
2019-03-09T04:24:49.860Z,15.60
2019-03-09T04:27:32.967Z,15.70
2019-03-09T04:30:18.308Z,15.70
2019-03-09T04:33:07.769Z,15.80
2019-03-09T04:35:53.190Z,15.90
2019-03-09T04:38:43.717Z,16.10
2019-03-09T04:41:28.287Z,16.00
2019-03-09T04:44:15.940Z,16.10
2019-03-09T04:46:58.076Z,16.10
2019-03-09T04:49:45.274Z,16.10
2019-03-09T04:52:28.287Z,16.30
2019-03-09T04:55:24.000Z,16.30
2019-03-09T04:58:27.983Z,16.30
2019-03-09T05:01:16.010Z,16.30
2019-03-09T05:04:36.661Z,16.20
2019-03-09T05:07:31.831Z,16.20
2019-03-09T05:10:47.924Z,16.20
2019-03-09T05:13:44.200Z,16.20
2019-03-09T05:16:33.706Z,16.20
2019-03-09T05:19:22.207Z,16.30
2019-03-09T05:22:12.184Z,16.50
2019-03-09T05:25:24.816Z,16.40
2019-03-09T05:28:18.486Z,16.40
2019-03-09T05:31:06.580Z,16.40
2019-03-09T05:34:09.829Z,16.40
2019-03-09T05:37:04.814Z,16.40
2019-03-09T05:39:50.634Z,16.40
2019-03-09T05:42:35.902Z,16.40
2019-03-09T05:45:42.480Z,16.40
2019-03-09T05:48:32.267Z,16.40
2019-03-09T05:51:32.008Z,16.40
2019-03-09T05:54:53.186Z,16.40
2019-03-09T05:57:39.249Z,16.50
2019-03-09T06:00:23.540Z,16.80
2019-03-09T06:03:13.522Z,16.80
2019-03-09T06:06:13.253Z,17.10
2019-03-09T06:09:03.087Z,17.00
2019-03-09T06:12:02.096Z,17.40
2019-03-09T06:14:50.142Z,17.40
2019-03-09T06:17:45.854Z,17.30
2019-03-09T06:20:29.859Z,17.30
2019-03-09T06:23:23.448Z,17.20
2019-03-09T06:26:10.986Z,17.20
2019-03-09T06:29:12.173Z,17.20
2019-03-09T06:32:46.784Z,17.30
2019-03-09T06:35:39.103Z,17.60
2019-03-09T06:39:06.004Z,17.50
2019-03-09T06:42:14.262Z,17.50
2019-03-09T06:45:07.809Z,17.50
2019-03-09T06:48:04.621Z,17.60
2019-03-09T06:50:53.753Z,17.70
2019-03-09T06:53:36.525Z,17.80
2019-03-09T06:59:45.515Z,17.90
2019-03-09T07:02:31.864Z,17.80
2019-03-09T07:05:32.946Z,17.70
2019-03-09T07:08:20.489Z,17.80
2019-03-09T07:11:34.053Z,18.00
2019-03-09T07:14:46.915Z,18.00
2019-03-09T07:17:43.108Z,18.30
2019-03-09T07:20:50.294Z,18.20
2019-03-09T07:23:48.470Z,18.10
2019-03-09T07:26:51.571Z,18.00
2019-03-09T07:29:43.126Z,17.90
2019-03-09T07:32:52.387Z,17.90
2019-03-09T07:36:13.126Z,18.00
2019-03-09T07:39:09.463Z,18.10
2019-03-09T07:42:00.722Z,18.00
2019-03-09T07:45:04.114Z,18.10
2019-03-09T07:48:22.894Z,18.10
2019-03-09T07:51:31.895Z,18.10
2019-03-09T07:54:21.898Z,18.10
2019-03-09T07:57:13.206Z,18.00
2019-03-09T08:00:52.233Z,18.10
2019-03-09T08:03:58.716Z,18.10
2019-03-09T08:07:08.352Z,18.00
2019-03-09T08:09:57.543Z,17.90
2019-03-09T08:12:54.077Z,17.90
2019-03-09T08:16:06.801Z,17.90
2019-03-09T08:19:02.539Z,17.90
2019-03-09T08:22:20.123Z,17.90
2019-03-09T08:25:23.017Z,17.80
2019-03-09T08:28:10.851Z,17.80
2019-03-09T08:31:17.418Z,17.80
2019-03-09T08:34:15.047Z,18.00
2019-03-09T08:37:42.182Z,17.90
2019-03-09T08:40:30.473Z,17.90
2019-03-09T08:43:35.240Z,17.80
2019-03-09T08:46:40.473Z,17.80
2019-03-09T08:49:36.793Z,17.70
2019-03-09T08:52:48.347Z,17.60
2019-03-09T08:55:40.235Z,17.50
2019-03-09T08:58:32.354Z,17.50
2019-03-09T09:01:21.976Z,17.50
2019-03-09T09:04:16.416Z,17.70
2019-03-09T09:07:02.273Z,17.80
2019-03-09T09:09:47.348Z,17.70
2019-03-09T09:12:35.850Z,18.00
2019-03-09T09:15:19.553Z,17.90
2019-03-09T09:18:14.545Z,17.90
2019-03-09T09:20:59.433Z,17.80
2019-03-09T09:24:00.755Z,17.80
2019-03-09T09:26:48.113Z,17.70
2019-03-09T09:29:34.890Z,17.80
2019-03-09T09:32:15.213Z,17.70
2019-03-09T09:35:01.587Z,17.70
2019-03-09T09:37:50.376Z,17.60
2019-03-09T09:40:37.904Z,17.60
2019-03-09T09:43:28.291Z,17.60
2019-03-09T09:46:15.265Z,17.50
2019-03-09T09:49:27.066Z,17.50
2019-03-09T09:58:48.616Z,17.60
2019-03-09T10:01:38.845Z,17.50
2019-03-09T10:04:27.682Z,17.50
2019-03-09T10:07:10.222Z,17.50
2019-03-09T10:09:53.717Z,17.50
2019-03-09T10:12:37.388Z,17.50
2019-03-09T10:15:26.458Z,17.40
2019-03-09T10:18:06.571Z,17.40
2019-03-09T10:20:50.052Z,17.30
2019-03-09T10:23:39.593Z,17.40
2019-03-09T10:26:33.266Z,17.40
2019-03-09T10:29:19.224Z,17.30
2019-03-09T10:32:08.882Z,17.30
2019-03-09T10:34:52.455Z,17.70
2019-03-09T10:37:39.058Z,17.50
2019-03-09T10:40:18.593Z,17.40
2019-03-09T10:43:11.733Z,17.40
2019-03-09T10:45:54.667Z,17.20
2019-03-09T10:51:46.842Z,17.20
2019-03-09T10:54:37.629Z,17.10
2019-03-09T10:57:17.794Z,17.10
2019-03-09T11:00:01.228Z,17.00
2019-03-09T11:02:57.845Z,17.00
2019-03-09T11:06:01.841Z,17.00
2019-03-09T11:08:47.957Z,17.00
2019-03-09T11:11:32.859Z,17.30
2019-03-09T11:14:15.395Z,17.30
2019-03-09T11:16:59.292Z,17.50
2019-03-09T11:19:46.705Z,17.40
2019-03-09T11:22:39.974Z,17.30
2019-03-09T11:25:40.235Z,17.30
2019-03-09T11:28:24.177Z,17.20
2019-03-09T11:31:09.570Z,17.10
2019-03-09T11:33:58.822Z,17.10
2019-03-09T11:36:50.094Z,17.00
2019-03-09T11:39:35.604Z,17.00
2019-03-09T11:42:26.376Z,17.00
2019-03-09T11:45:17.410Z,17.00
2019-03-09T11:47:59.911Z,17.00
2019-03-09T11:50:46.789Z,16.90
2019-03-09T11:53:36.476Z,16.90
2019-03-09T11:56:31.760Z,16.90
2019-03-09T11:59:21.178Z,16.80
2019-03-09T12:02:07.847Z,17.10
2019-03-09T12:04:59.117Z,17.00
2019-03-09T12:07:42.070Z,16.80
2019-03-09T12:10:25.654Z,16.80
2019-03-09T12:13:19.851Z,16.70
2019-03-09T12:16:25.688Z,16.60
2019-03-09T12:22:29.741Z,16.50
2019-03-09T12:25:35.161Z,16.50
2019-03-09T12:28:29.896Z,16.50
2019-03-09T12:31:19.094Z,16.50
2019-03-09T12:34:18.283Z,16.50
2019-03-09T12:37:06.940Z,16.50
2019-03-09T12:39:56.444Z,16.60
2019-03-09T12:42:47.867Z,16.60
2019-03-09T12:45:47.933Z,16.70
2019-03-09T12:48:52.584Z,16.60
2019-03-09T12:51:56.970Z,16.60
2019-03-09T12:54:45.863Z,16.50
2019-03-09T12:57:32.998Z,16.50
2019-03-09T13:00:30.042Z,16.50
2019-03-09T13:03:32.286Z,16.50
2019-03-09T13:06:20.269Z,16.40
2019-03-09T13:09:08.581Z,16.40
2019-03-09T13:12:01.512Z,16.40
2019-03-09T13:15:04.828Z,16.40
2019-03-09T13:17:52.841Z,16.30
2019-03-09T13:20:39.450Z,16.30
2019-03-09T13:23:32.236Z,16.30
2019-03-09T13:26:22.065Z,16.40
2019-03-09T13:29:34.915Z,16.30
2019-03-09T13:32:24.811Z,16.20
2019-03-09T13:35:17.443Z,16.20
2019-03-09T13:38:05.770Z,16.20
2019-03-09T13:40:55.773Z,16.20
2019-03-09T13:43:43.397Z,16.10
2019-03-09T13:46:44.105Z,16.10
2019-03-09T13:49:38.890Z,16.10
2019-03-09T14:02:33.288Z,16.40
2019-03-09T14:05:31.827Z,16.20
2019-03-09T14:08:32.838Z,16.50
2019-03-09T14:11:22.703Z,16.40
2019-03-09T14:14:27.776Z,16.20
2019-03-09T14:17:15.836Z,16.00
2019-03-09T14:23:10.179Z,15.90
2019-03-09T14:26:02.473Z,15.90
2019-03-09T14:28:54.122Z,16.00
2019-03-09T14:31:54.460Z,15.90
2019-03-09T14:35:03.061Z,15.90
2019-03-09T14:37:48.417Z,15.90
2019-03-09T14:40:49.165Z,15.80
2019-03-09T14:43:46.418Z,15.80
2019-03-09T14:46:48.907Z,15.80
2019-03-09T14:50:14.566Z,16.10
2019-03-09T14:53:17.268Z,16.00
2019-03-09T14:56:53.633Z,15.90
2019-03-09T15:00:28.836Z,15.80
2019-03-09T15:03:50.495Z,15.80
2019-03-09T15:10:34.548Z,15.60
2019-03-09T15:13:39.920Z,15.60
2019-03-09T15:16:55.582Z,15.60
2019-03-09T15:20:20.611Z,15.50
2019-03-09T15:27:45.688Z,15.50
2019-03-09T15:34:39.882Z,16.00
2019-03-09T15:38:09.049Z,15.80
2019-03-09T15:41:46.879Z,15.70
2019-03-09T15:45:05.260Z,15.60
2019-03-09T15:48:19.453Z,15.60
2019-03-09T15:51:35.357Z,15.50
2019-03-09T15:55:17.313Z,15.40
2019-03-09T15:58:51.589Z,15.40
2019-03-09T16:02:24.896Z,15.40
2019-03-09T16:06:04.273Z,15.40
2019-03-09T16:09:18.968Z,15.40
2019-03-09T16:12:40.407Z,15.40
2019-03-09T16:15:58.292Z,15.50
2019-03-09T16:20:04.331Z,15.50
2019-03-09T16:23:23.560Z,15.50
2019-03-09T16:26:46.033Z,15.40
2019-03-09T16:34:12.247Z,15.50
2019-03-09T16:37:18.617Z,15.40
2019-03-09T16:40:40.487Z,15.40
2019-03-09T16:50:36.687Z,15.20
2019-03-09T16:54:00.911Z,15.20
2019-03-09T16:57:05.457Z,15.60
2019-03-09T17:00:07.369Z,15.50
2019-03-09T17:03:23.826Z,15.30
2019-03-09T17:06:53.869Z,15.30
2019-03-09T17:09:48.229Z,15.20
2019-03-09T17:12:39.331Z,15.30
2019-03-09T17:15:43.072Z,15.20
2019-03-09T17:18:33.143Z,15.20
2019-03-09T17:22:04.116Z,15.20
2019-03-09T17:24:54.943Z,15.20
2019-03-09T17:27:56.088Z,15.20
2019-03-09T17:30:59.517Z,15.20
2019-03-09T17:33:54.465Z,15.20
2019-03-09T17:36:46.338Z,15.10
2019-03-09T17:39:46.300Z,15.10
2019-03-09T17:42:29.427Z,15.10
2019-03-09T17:57:44.395Z,15.20
2019-03-09T18:03:39.934Z,15.10
2019-03-09T18:06:27.313Z,15.00
2019-03-09T18:09:13.397Z,15.00
2019-03-09T18:11:53.408Z,14.90
2019-03-09T18:14:33.380Z,15.00
2019-03-09T18:17:14.659Z,15.00
2019-03-09T18:19:54.753Z,15.00
2019-03-09T18:22:36.610Z,15.00
2019-03-09T18:25:20.462Z,15.00
2019-03-09T18:28:12.972Z,15.00
2019-03-09T18:31:03.389Z,14.90
2019-03-09T18:33:52.696Z,15.00
2019-03-09T18:36:40.180Z,15.20
2019-03-09T18:39:25.922Z,15.10
2019-03-09T18:42:11.618Z,15.00
2019-03-09T18:44:55.638Z,14.90
2019-03-09T18:47:37.646Z,14.90
2019-03-09T18:50:24.193Z,15.00
2019-03-09T18:53:08.064Z,15.00
2019-03-09T18:55:58.875Z,15.00
2019-03-09T18:58:33.180Z,14.90
2019-03-09T19:01:16.469Z,14.90
2019-03-09T19:04:01.425Z,14.90
2019-03-09T19:06:45.512Z,14.80
2019-03-09T19:09:27.930Z,14.80
2019-03-09T19:12:08.309Z,14.90
2019-03-09T19:14:55.607Z,14.90
2019-03-09T19:17:37.361Z,14.80
2019-03-09T19:20:18.817Z,15.20
2019-03-09T19:23:02.217Z,15.10
2019-03-09T19:25:43.220Z,15.30
2019-03-09T19:28:23.275Z,15.20
2019-03-09T19:31:02.663Z,15.10
2019-03-09T19:33:44.340Z,15.00
2019-03-09T19:36:27.547Z,14.90
2019-03-09T19:39:09.025Z,14.90
2019-03-09T19:41:49.784Z,14.90
2019-03-09T19:44:31.004Z,14.90
2019-03-09T19:47:13.927Z,14.90
2019-03-09T19:49:56.174Z,14.90
2019-03-09T19:52:41.227Z,14.80
2019-03-09T19:55:21.257Z,14.70
2019-03-09T19:58:02.211Z,14.70
2019-03-09T20:00:45.347Z,14.80
2019-03-09T20:03:25.569Z,14.70
2019-03-09T20:06:07.017Z,14.70
2019-03-09T20:08:48.754Z,14.70
2019-03-09T20:11:36.275Z,14.80
2019-03-09T20:14:16.893Z,14.80
2019-03-09T20:17:02.086Z,15.10
2019-03-09T20:19:44.233Z,14.80
2019-03-09T20:22:27.396Z,14.80
2019-03-09T20:25:10.944Z,14.70
2019-03-09T20:27:53.157Z,14.70
2019-03-09T20:30:32.923Z,14.70
2019-03-09T20:33:26.810Z,14.60
2019-03-09T20:36:12.685Z,14.60
2019-03-09T20:38:53.406Z,14.60
2019-03-09T20:41:35.344Z,14.50
2019-03-09T20:44:18.145Z,14.50
2019-03-09T20:46:58.254Z,14.50
2019-03-09T20:49:41.579Z,14.50
2019-03-09T20:52:24.434Z,14.50
2019-03-09T20:55:06.494Z,14.50
2019-03-09T20:57:48.918Z,14.50
2019-03-09T21:00:28.273Z,14.50
2019-03-09T21:03:10.516Z,14.80
2019-03-09T21:05:54.485Z,14.60
2019-03-09T21:08:36.114Z,14.70
2019-03-09T21:11:20.132Z,14.60
2019-03-09T21:14:14.613Z,14.50
2019-03-09T21:17:01.579Z,14.50
2019-03-09T21:19:46.312Z,14.40
2019-03-09T21:22:28.679Z,14.40
2019-03-09T21:25:13.486Z,14.40
2019-03-09T21:28:01.430Z,14.30
2019-03-09T21:34:04.212Z,14.20
2019-03-09T21:36:50.072Z,14.30
2019-03-09T21:39:29.945Z,14.20
2019-03-09T21:42:14.772Z,14.20
2019-03-09T21:44:59.053Z,14.20
2019-03-09T21:47:50.611Z,14.10
2019-03-09T21:50:30.532Z,14.10
2019-03-09T21:53:12.802Z,14.10
2019-03-09T21:55:55.448Z,14.10
2019-03-09T21:58:40.591Z,14.10
2019-03-09T22:01:23.074Z,14.10
2019-03-09T22:04:09.835Z,14.10
2019-03-09T22:06:49.710Z,14.10
2019-03-09T22:09:31.608Z,14.10
2019-03-09T22:12:19.200Z,14.10
2019-03-09T22:15:03.816Z,14.00
2019-03-09T22:17:57.230Z,14.00
2019-03-09T22:20:36.912Z,14.00
2019-03-09T22:23:23.685Z,14.00
2019-03-09T22:26:06.090Z,14.00
2019-03-09T22:28:48.937Z,13.90
2019-03-09T22:31:32.219Z,13.90
2019-03-09T22:34:20.630Z,13.80
2019-03-09T22:37:03.735Z,13.90
2019-03-09T22:39:51.318Z,13.90
2019-03-09T22:42:38.011Z,13.90
2019-03-09T22:45:20.505Z,13.80
2019-03-09T22:48:04.531Z,13.90
2019-03-09T22:50:42.992Z,13.90
2019-03-09T22:53:33.514Z,13.80
2019-03-09T22:56:19.407Z,14.00
2019-03-09T22:59:06.553Z,13.90
2019-03-09T23:01:51.152Z,13.90
2019-03-09T23:04:28.695Z,13.80
2019-03-09T23:07:19.785Z,13.90
2019-03-09T23:10:00.150Z,13.90
2019-03-09T23:12:43.224Z,13.90
2019-03-09T23:15:29.306Z,13.90
2019-03-09T23:21:22.593Z,14.30
2019-03-09T23:24:19.738Z,14.20
2019-03-09T23:27:06.600Z,14.30
2019-03-09T23:29:47.827Z,14.30
2019-03-09T23:32:35.588Z,14.30
2019-03-09T23:35:31.982Z,14.70
2019-03-09T23:38:26.675Z,14.70
2019-03-09T23:41:11.012Z,14.60
2019-03-09T23:44:02.409Z,14.60
2019-03-09T23:46:51.388Z,14.70
2019-03-09T23:49:36.897Z,14.70
2019-03-09T23:52:26.153Z,14.80
2019-03-09T23:55:06.801Z,14.70
2019-03-09T23:57:49.941Z,14.70
